createdAt,value
2018-06-29T00:01:00.669Z,99758.00
2018-06-29T00:03:30.101Z,99755.00
2018-06-29T00:05:59.510Z,99752.00
2018-06-29T00:08:28.893Z,99757.00
2018-06-29T00:10:58.378Z,99753.00
2018-06-29T00:13:27.819Z,99751.00
2018-06-29T00:15:57.255Z,99748.00
2018-06-29T00:18:26.708Z,99756.00
2018-06-29T00:20:56.080Z,99751.00
2018-06-29T00:23:25.451Z,99755.00
2018-06-29T00:25:54.930Z,99756.00
2018-06-29T00:28:24.748Z,99767.00
2018-06-29T00:30:54.144Z,99760.00
2018-06-29T00:33:23.499Z,99758.00
2018-06-29T00:35:52.883Z,99759.00
2018-06-29T00:38:22.271Z,99759.00
2018-06-29T00:40:51.776Z,99760.00
2018-06-29T00:43:21.145Z,99755.00
2018-06-29T00:45:50.638Z,99751.00
2018-06-29T00:48:20.017Z,99751.00
2018-06-29T00:50:49.448Z,99744.00
2018-06-29T00:53:18.832Z,99749.00
2018-06-29T00:55:48.212Z,99742.00
2018-06-29T00:58:17.570Z,99748.00
2018-06-29T01:00:47.050Z,99742.00
2018-06-29T01:03:16.466Z,99738.00
2018-06-29T01:05:45.905Z,99751.00
2018-06-29T01:08:15.323Z,99755.00
2018-06-29T01:10:44.693Z,99754.00
2018-06-29T01:13:14.073Z,99753.00
2018-06-29T01:15:43.482Z,99750.00
2018-06-29T01:18:12.960Z,99748.00
2018-06-29T01:20:42.448Z,99746.00
2018-06-29T01:23:11.826Z,99744.00
2018-06-29T01:25:41.238Z,99744.00
2018-06-29T01:28:10.645Z,99742.00
2018-06-29T01:30:40.048Z,99737.00
2018-06-29T01:33:09.530Z,99741.00
2018-06-29T01:35:38.864Z,99736.00
2018-06-29T01:38:08.453Z,99746.00
2018-06-29T01:40:37.896Z,99738.00
2018-06-29T01:43:07.323Z,99720.00
2018-06-29T01:45:36.732Z,99728.00
2018-06-29T01:48:06.277Z,99724.00
2018-06-29T01:50:35.756Z,99719.00
2018-06-29T01:53:05.156Z,99715.00
2018-06-29T01:55:34.664Z,99715.00
2018-06-29T01:58:04.056Z,99707.00
2018-06-29T02:00:33.442Z,99700.00
2018-06-29T02:03:02.808Z,99700.00
2018-06-29T02:05:32.218Z,99715.00
2018-06-29T02:08:01.667Z,99718.00
2018-06-29T02:10:31.053Z,99707.00
2018-06-29T02:13:00.436Z,99704.00
2018-06-29T02:15:29.839Z,99700.00
2018-06-29T02:17:59.240Z,99703.00
2018-06-29T02:20:28.630Z,99700.00
2018-06-29T02:22:57.984Z,99693.00
2018-06-29T02:25:27.035Z,99693.00
2018-06-29T02:27:56.365Z,99691.00
2018-06-29T02:30:25.764Z,99694.00
2018-06-29T02:32:55.171Z,99692.00
2018-06-29T02:35:24.544Z,99694.00
2018-06-29T02:37:54.009Z,99700.00
2018-06-29T02:40:23.415Z,99699.00
2018-06-29T02:42:52.817Z,99702.00
2018-06-29T02:45:22.220Z,99698.00
2018-06-29T02:47:51.551Z,99693.00
2018-06-29T02:50:21.101Z,99699.00
2018-06-29T02:52:50.553Z,99700.00
2018-06-29T02:55:19.656Z,99696.00
2018-06-29T02:57:49.019Z,99702.00
2018-06-29T03:00:18.486Z,99703.00
2018-06-29T03:02:47.921Z,99701.00
2018-06-29T03:05:17.303Z,99695.00
2018-06-29T03:07:46.717Z,99688.00
2018-06-29T03:10:16.176Z,99690.00
2018-06-29T03:12:45.561Z,99703.00
2018-06-29T03:15:15.030Z,99695.00
2018-06-29T03:17:44.447Z,99691.00
2018-06-29T03:20:16.996Z,99691.00
2018-06-29T03:22:46.562Z,99704.00
2018-06-29T03:25:16.026Z,99703.00
2018-06-29T03:27:45.386Z,99704.00
2018-06-29T03:30:14.785Z,99695.00
2018-06-29T03:32:44.259Z,99705.00
2018-06-29T03:35:13.769Z,99701.00
2018-06-29T03:37:43.129Z,99706.00
2018-06-29T03:40:12.583Z,99708.00
2018-06-29T03:42:41.971Z,99708.00
2018-06-29T03:45:11.312Z,99708.00
2018-06-29T03:47:40.696Z,99703.00
2018-06-29T03:50:10.128Z,99703.00
2018-06-29T03:52:39.508Z,99710.00
2018-06-29T03:55:08.916Z,99708.00
2018-06-29T03:57:38.295Z,99712.00
2018-06-29T04:00:07.794Z,99710.00
2018-06-29T04:02:37.237Z,99711.00
2018-06-29T04:05:06.612Z,99706.00
2018-06-29T04:07:36.044Z,99712.00
2018-06-29T04:10:05.521Z,99714.00
2018-06-29T04:12:35.863Z,99707.00
2018-06-29T04:15:06.006Z,99711.00
2018-06-29T04:17:35.422Z,99708.00
2018-06-29T04:20:05.356Z,99703.00
2018-06-29T04:22:34.760Z,99695.00
2018-06-29T04:25:05.638Z,99704.00
2018-06-29T04:27:34.974Z,99695.00
2018-06-29T04:30:05.017Z,99689.00
2018-06-29T04:32:34.445Z,99691.00
2018-06-29T04:35:03.831Z,99692.00
2018-06-29T04:37:33.205Z,99689.00
2018-06-29T04:40:02.582Z,99688.00
2018-06-29T04:42:32.081Z,99702.00
2018-06-29T04:45:01.519Z,99695.00
2018-06-29T04:47:31.018Z,99687.00
2018-06-29T04:50:00.425Z,99690.00
2018-06-29T04:52:29.775Z,99675.00
2018-06-29T04:54:59.179Z,99687.00
2018-06-29T04:57:28.632Z,99685.00
2018-06-29T04:59:58.116Z,99688.00
2018-06-29T05:02:27.531Z,99698.00
2018-06-29T05:04:56.898Z,99693.00
2018-06-29T05:07:26.239Z,99707.00
2018-06-29T05:09:55.586Z,99701.00
2018-06-29T05:12:25.045Z,99703.00
2018-06-29T05:14:54.543Z,99704.00
2018-06-29T05:17:23.864Z,99705.00
2018-06-29T05:19:53.287Z,99706.00
2018-06-29T05:22:22.697Z,99717.00
2018-06-29T05:24:52.201Z,99708.00
2018-06-29T05:27:21.713Z,99715.00
2018-06-29T05:29:51.116Z,99712.00
2018-06-29T05:32:20.652Z,99715.00
2018-06-29T05:34:50.096Z,99716.00
2018-06-29T05:37:20.051Z,99710.00
2018-06-29T05:39:49.473Z,99719.00
2018-06-29T05:42:18.964Z,99709.00
2018-06-29T05:44:48.368Z,99717.00
2018-06-29T05:47:17.753Z,99711.00
2018-06-29T05:49:47.085Z,99726.00
2018-06-29T05:52:16.542Z,99724.00
2018-06-29T05:54:46.867Z,99728.00
2018-06-29T05:57:16.197Z,99726.00
2018-06-29T05:59:45.592Z,99719.00
2018-06-29T06:02:15.091Z,99722.00
2018-06-29T06:04:44.867Z,99727.00
2018-06-29T06:07:14.247Z,99729.00
2018-06-29T06:09:43.738Z,99737.00
2018-06-29T06:12:13.157Z,99735.00
2018-06-29T06:14:42.454Z,99726.00
2018-06-29T06:17:11.825Z,99733.00
2018-06-29T06:19:57.929Z,99739.00
2018-06-29T06:22:27.318Z,99741.00
2018-06-29T06:24:56.738Z,99740.00
2018-06-29T06:27:26.443Z,99741.00
2018-06-29T06:29:56.024Z,99733.00
2018-06-29T06:32:25.537Z,99738.00
2018-06-29T06:34:54.961Z,99743.00
2018-06-29T06:37:24.318Z,99741.00
2018-06-29T06:39:53.662Z,99745.00
2018-06-29T06:42:23.098Z,99738.00
2018-06-29T06:44:52.500Z,99737.00
2018-06-29T06:47:21.843Z,99739.00
2018-06-29T06:49:51.236Z,99739.00
2018-06-29T06:52:20.645Z,99746.00
2018-06-29T06:54:49.989Z,99741.00
2018-06-29T06:57:19.363Z,99747.00
2018-06-29T06:59:48.702Z,99744.00
2018-06-29T07:02:18.035Z,99741.00
2018-06-29T07:04:47.383Z,99737.00
2018-06-29T07:07:16.710Z,99742.00
2018-06-29T07:09:46.205Z,99743.00
2018-06-29T07:12:15.559Z,99743.00
2018-06-29T07:14:45.009Z,99740.00
2018-06-29T07:17:14.371Z,99753.00
2018-06-29T07:19:43.748Z,99743.00
2018-06-29T07:22:13.123Z,99746.00
2018-06-29T07:24:42.558Z,99743.00
2018-06-29T07:27:11.967Z,99745.00
2018-06-29T07:29:41.373Z,99739.00
2018-06-29T07:32:10.757Z,99733.00
2018-06-29T07:34:40.113Z,99734.00
2018-06-29T07:37:09.492Z,99741.00
2018-06-29T07:39:38.848Z,99729.00
2018-06-29T07:42:08.217Z,99732.00
2018-06-29T07:44:37.553Z,99726.00
2018-06-29T07:47:06.899Z,99736.00
2018-06-29T07:49:36.349Z,99739.00
2018-06-29T07:52:05.851Z,99735.00
2018-06-29T07:54:35.181Z,99741.00
2018-06-29T07:57:04.562Z,99742.00
2018-06-29T07:59:33.935Z,99723.00
2018-06-29T08:02:03.393Z,99730.00
2018-06-29T08:04:32.721Z,99721.00
2018-06-29T08:07:02.051Z,99717.00
2018-06-29T08:09:31.497Z,99715.00
2018-06-29T08:12:00.858Z,99719.00
2018-06-29T08:14:30.225Z,99714.00
2018-06-29T08:16:59.600Z,99716.00
2018-06-29T08:19:28.979Z,99708.00
2018-06-29T08:21:58.423Z,99704.00
2018-06-29T08:24:31.275Z,99704.00
2018-06-29T08:27:00.705Z,99709.00
2018-06-29T08:29:30.048Z,99708.00
2018-06-29T08:31:59.542Z,99712.00
2018-06-29T08:34:28.906Z,99705.00
2018-06-29T08:36:58.257Z,99704.00
2018-06-29T08:39:27.794Z,99708.00
2018-06-29T08:41:57.197Z,99712.00
2018-06-29T08:44:26.534Z,99708.00
2018-06-29T08:46:55.989Z,99707.00
2018-06-29T08:49:25.242Z,99699.00
2018-06-29T08:51:54.608Z,99697.00
2018-06-29T08:54:23.957Z,99706.00
2018-06-29T08:56:53.330Z,99700.00
2018-06-29T08:59:22.705Z,99709.00
2018-06-29T09:01:52.919Z,99701.00
2018-06-29T09:04:22.300Z,99699.00
2018-06-29T09:06:51.673Z,99705.00
2018-06-29T09:09:21.038Z,99706.00
2018-06-29T09:11:50.407Z,99699.00
2018-06-29T09:14:19.751Z,99696.00
2018-06-29T09:16:49.209Z,99689.00
2018-06-29T09:19:18.599Z,99700.00
2018-06-29T09:21:48.037Z,99692.00
2018-06-29T09:24:17.521Z,99682.00
2018-06-29T09:26:46.999Z,99680.00
2018-06-29T09:29:16.329Z,99683.00
2018-06-29T09:31:45.674Z,99676.00
2018-06-29T09:34:15.083Z,99682.00
2018-06-29T09:36:44.570Z,99685.00
2018-06-29T09:39:14.400Z,99682.00
2018-06-29T09:41:43.892Z,99675.00
2018-06-29T09:44:13.292Z,99680.00
2018-06-29T09:46:42.655Z,99669.00
2018-06-29T09:49:11.978Z,99679.00
2018-06-29T09:51:41.385Z,99670.00
2018-06-29T09:54:10.737Z,99678.00
2018-06-29T09:56:40.196Z,99666.00
2018-06-29T09:59:09.620Z,99658.00
2018-06-29T10:01:38.957Z,99660.00
2018-06-29T10:04:08.462Z,99664.00
2018-06-29T10:06:37.910Z,99658.00
2018-06-29T10:09:10.141Z,99658.00
2018-06-29T10:11:39.796Z,99655.00
2018-06-29T10:14:09.338Z,99655.00
2018-06-29T10:16:38.686Z,99654.00
2018-06-29T10:19:08.049Z,99657.00
2018-06-29T10:21:37.487Z,99641.00
2018-06-29T10:24:06.860Z,99643.00
2018-06-29T10:26:36.249Z,99640.00
2018-06-29T10:29:05.655Z,99646.00
2018-06-29T10:31:35.005Z,99636.00
2018-06-29T10:34:04.443Z,99639.00
2018-06-29T10:36:33.847Z,99635.00
2018-06-29T10:39:03.325Z,99631.00
2018-06-29T10:41:32.864Z,99636.00
2018-06-29T10:44:02.369Z,99625.00
2018-06-29T10:46:31.697Z,99633.00
2018-06-29T10:49:01.113Z,99626.00
2018-06-29T10:51:30.647Z,99631.00
2018-06-29T10:54:06.625Z,99628.00
2018-06-29T10:56:35.997Z,99623.00
2018-06-29T10:59:05.397Z,99625.00
2018-06-29T11:01:34.763Z,99620.00
2018-06-29T11:04:04.223Z,99620.00
2018-06-29T11:06:33.598Z,99617.00
2018-06-29T11:09:03.006Z,99614.00
2018-06-29T11:11:33.437Z,99616.00
2018-06-29T11:14:02.778Z,99615.00
2018-06-29T11:16:32.318Z,99602.00
2018-06-29T11:19:01.991Z,99599.00
2018-06-29T11:21:31.388Z,99606.00
2018-06-29T11:24:01.334Z,99608.00
2018-06-29T11:26:31.570Z,99613.00
2018-06-29T11:29:01.121Z,99608.00
2018-06-29T11:31:30.565Z,99597.00
2018-06-29T11:34:00.144Z,99604.00
2018-06-29T11:36:29.629Z,99603.00
2018-06-29T11:38:59.108Z,99602.00
2018-06-29T11:41:28.512Z,99596.00
2018-06-29T11:43:57.923Z,99594.00
2018-06-29T11:46:27.411Z,99584.00
2018-06-29T11:48:56.769Z,99577.00
2018-06-29T11:51:26.607Z,99595.00
2018-06-29T11:53:56.146Z,99577.00
2018-06-29T11:56:25.652Z,99571.00
2018-06-29T11:58:55.018Z,99574.00
2018-06-29T12:01:24.534Z,99582.00
2018-06-29T12:03:53.893Z,99572.00
2018-06-29T12:06:23.412Z,99552.00
2018-06-29T12:08:52.899Z,99548.00
2018-06-29T12:11:22.388Z,99549.00
2018-06-29T12:13:52.025Z,99551.00
2018-06-29T12:16:21.523Z,99545.00
2018-06-29T12:18:51.321Z,99540.00
2018-06-29T12:21:20.671Z,99532.00
2018-06-29T12:23:49.744Z,99531.00
2018-06-29T12:26:19.139Z,99531.00
2018-06-29T12:28:48.622Z,99532.00
2018-06-29T12:31:18.090Z,99534.00
2018-06-29T12:33:47.596Z,99530.00
2018-06-29T12:36:17.955Z,99529.00
2018-06-29T12:38:47.406Z,99516.00
2018-06-29T12:41:16.954Z,99520.00
2018-06-29T12:43:46.441Z,99511.00
2018-06-29T12:46:16.023Z,99507.00
2018-06-29T12:48:45.497Z,99509.00
2018-06-29T12:51:14.900Z,99494.00
2018-06-29T12:53:44.336Z,99495.00
2018-06-29T12:56:13.827Z,99497.00
2018-06-29T12:58:43.239Z,99497.00
2018-06-29T13:01:12.644Z,99502.00
2018-06-29T13:03:41.993Z,99499.00
2018-06-29T13:06:11.363Z,99493.00
2018-06-29T13:08:40.745Z,99485.00
2018-06-29T13:11:10.129Z,99470.00
2018-06-29T13:13:39.582Z,99470.00
2018-06-29T13:16:08.940Z,99468.00
2018-06-29T13:18:38.405Z,99468.00
2018-06-29T13:21:08.130Z,99465.00
2018-06-29T13:23:37.496Z,99458.00
2018-06-29T13:26:06.607Z,99466.00
2018-06-29T13:28:36.014Z,99458.00
2018-06-29T13:31:05.467Z,99465.00
2018-06-29T13:33:34.883Z,99443.00
2018-06-29T13:36:04.575Z,99455.00
2018-06-29T13:38:34.049Z,99440.00
2018-06-29T13:41:03.445Z,99447.00
2018-06-29T13:43:32.902Z,99444.00
2018-06-29T13:46:02.288Z,99447.00
2018-06-29T13:48:31.688Z,99441.00
2018-06-29T13:51:01.064Z,99438.00
2018-06-29T13:53:30.463Z,99445.00
2018-06-29T13:55:59.843Z,99429.00
2018-06-29T13:58:29.206Z,99427.00
2018-06-29T14:00:58.642Z,99435.00
2018-06-29T14:03:28.029Z,99431.00
2018-06-29T14:05:57.389Z,99433.00
2018-06-29T14:08:26.752Z,99428.00
2018-06-29T14:10:56.126Z,99421.00
2018-06-29T14:13:25.586Z,99421.00
2018-06-29T14:15:54.985Z,99416.00
2018-06-29T14:18:24.397Z,99425.00
2018-06-29T14:20:53.811Z,99423.00
2018-06-29T14:23:23.174Z,99413.00
2018-06-29T14:25:52.581Z,99415.00
2018-06-29T14:28:22.141Z,99413.00
2018-06-29T14:30:51.506Z,99408.00
2018-06-29T14:33:21.039Z,99409.00
2018-06-29T14:35:50.456Z,99409.00
2018-06-29T14:38:19.933Z,99407.00
2018-06-29T14:40:49.564Z,99395.00
2018-06-29T14:43:18.943Z,99406.00
2018-06-29T14:45:48.325Z,99388.00
2018-06-29T14:48:17.725Z,99387.00
2018-06-29T14:50:47.137Z,99384.00
2018-06-29T14:53:16.503Z,99382.00
2018-06-29T14:55:45.912Z,99374.00
2018-06-29T14:58:15.284Z,99387.00
2018-06-29T15:00:44.664Z,99368.00
2018-06-29T15:03:14.370Z,99372.00
2018-06-29T15:05:43.754Z,99375.00
2018-06-29T15:08:13.222Z,99375.00
2018-06-29T15:10:42.607Z,99370.00
2018-06-29T15:13:12.043Z,99367.00
2018-06-29T15:15:41.446Z,99370.00
2018-06-29T15:18:10.848Z,99373.00
2018-06-29T15:20:40.385Z,99366.00
2018-06-29T15:23:09.745Z,99368.00
2018-06-29T15:25:39.151Z,99370.00
2018-06-29T15:28:08.551Z,99369.00
2018-06-29T15:30:38.010Z,99366.00
2018-06-29T15:33:07.443Z,99363.00
2018-06-29T15:35:36.912Z,99362.00
2018-06-29T15:38:06.434Z,99356.00
2018-06-29T15:40:35.996Z,99356.00
2018-06-29T15:43:06.930Z,99349.00
2018-06-29T15:45:36.334Z,99354.00
2018-06-29T15:48:06.129Z,99357.00
2018-06-29T15:50:35.540Z,99351.00
2018-06-29T15:53:04.985Z,99357.00
2018-06-29T15:55:34.408Z,99348.00
2018-06-29T15:58:03.838Z,99343.00
2018-06-29T16:00:33.205Z,99344.00
2018-06-29T16:03:02.649Z,99346.00
2018-06-29T16:05:32.063Z,99345.00
2018-06-29T16:08:01.552Z,99344.00
2018-06-29T16:10:31.032Z,99343.00
2018-06-29T16:13:00.390Z,99347.00
2018-06-29T16:15:29.840Z,99349.00
2018-06-29T16:17:59.191Z,99349.00
2018-06-29T16:20:28.615Z,99351.00
2018-06-29T16:22:58.172Z,99344.00
2018-06-29T16:25:27.604Z,99341.00
2018-06-29T16:27:56.999Z,99344.00
2018-06-29T16:30:26.416Z,99340.00
2018-06-29T16:32:55.805Z,99352.00
2018-06-29T16:35:25.210Z,99351.00
2018-06-29T16:37:54.568Z,99352.00
2018-06-29T16:40:24.107Z,99354.00
2018-06-29T16:42:53.521Z,99340.00
2018-06-29T16:45:22.911Z,99346.00
2018-06-29T16:47:53.017Z,99347.00
2018-06-29T16:50:22.464Z,99353.00
2018-06-29T16:52:51.869Z,99344.00
2018-06-29T16:55:21.281Z,99347.00
2018-06-29T16:57:50.786Z,99344.00
2018-06-29T17:00:20.467Z,99340.00
2018-06-29T17:02:49.828Z,99351.00
2018-06-29T17:05:19.239Z,99354.00
2018-06-29T17:07:48.613Z,99339.00
2018-06-29T17:10:18.038Z,99342.00
2018-06-29T17:12:47.426Z,99343.00
2018-06-29T17:15:16.878Z,99338.00
2018-06-29T17:17:46.241Z,99345.00
2018-06-29T17:20:15.649Z,99337.00
2018-06-29T17:22:45.048Z,99337.00
2018-06-29T17:25:14.542Z,99334.00
2018-06-29T17:27:43.930Z,99338.00
2018-06-29T17:30:13.334Z,99329.00
2018-06-29T17:32:42.744Z,99336.00
2018-06-29T17:35:12.081Z,99338.00
2018-06-29T17:37:41.466Z,99338.00
2018-06-29T17:40:10.880Z,99336.00
2018-06-29T17:42:40.276Z,99340.00
2018-06-29T17:45:09.642Z,99339.00
2018-06-29T17:47:39.029Z,99342.00
2018-06-29T17:50:08.412Z,99341.00
2018-06-29T17:52:37.820Z,99345.00
2018-06-29T17:55:07.330Z,99342.00
2018-06-29T17:57:36.762Z,99341.00
2018-06-29T18:00:06.510Z,99344.00
2018-06-29T18:02:35.945Z,99350.00
2018-06-29T18:05:05.728Z,99350.00
2018-06-29T18:07:35.159Z,99344.00
2018-06-29T18:10:04.660Z,99344.00
2018-06-29T18:12:34.155Z,99345.00
2018-06-29T18:15:03.503Z,99342.00
2018-06-29T18:17:33.072Z,99336.00
2018-06-29T18:20:02.590Z,99340.00
2018-06-29T18:22:32.081Z,99338.00
2018-06-29T18:25:01.468Z,99341.00
2018-06-29T18:27:30.986Z,99341.00
2018-06-29T18:30:00.364Z,99341.00
2018-06-29T18:32:29.796Z,99342.00
2018-06-29T18:34:59.234Z,99347.00
2018-06-29T18:37:28.701Z,99344.00
2018-06-29T18:39:58.109Z,99346.00
2018-06-29T18:42:27.523Z,99348.00
2018-06-29T18:44:57.079Z,99347.00
2018-06-29T18:47:26.536Z,99351.00
2018-06-29T18:49:55.936Z,99352.00
2018-06-29T18:52:25.375Z,99355.00
2018-06-29T18:54:55.013Z,99357.00
2018-06-29T18:57:24.396Z,99357.00
2018-06-29T18:59:53.924Z,99360.00
2018-06-29T19:02:23.378Z,99355.00
2018-06-29T19:04:52.754Z,99355.00
2018-06-29T19:07:22.137Z,99366.00
2018-06-29T19:09:51.565Z,99369.00
2018-06-29T19:12:20.954Z,99370.00
2018-06-29T19:14:50.341Z,99369.00
2018-06-29T19:17:19.752Z,99373.00
2018-06-29T19:19:49.132Z,99377.00
2018-06-29T19:22:18.532Z,99375.00
2018-06-29T19:24:47.964Z,99376.00
2018-06-29T19:27:17.413Z,99372.00
2018-06-29T19:29:46.805Z,99382.00
2018-06-29T19:32:16.429Z,99378.00
2018-06-29T19:34:45.800Z,99385.00
2018-06-29T19:37:15.318Z,99388.00
2018-06-29T19:39:44.742Z,99388.00
2018-06-29T19:42:14.109Z,99396.00
2018-06-29T19:44:43.525Z,99405.00
2018-06-29T19:47:12.979Z,99401.00
2018-06-29T19:49:42.468Z,99416.00
2018-06-29T19:52:11.829Z,99414.00
2018-06-29T19:54:41.271Z,99432.00
2018-06-29T19:57:10.661Z,99427.00
2018-06-29T19:59:40.057Z,99437.00
2018-06-29T20:02:09.460Z,99442.00
2018-06-29T20:04:38.821Z,99456.00
2018-06-29T20:07:08.255Z,99457.00
2018-06-29T20:09:37.710Z,99478.00
2018-06-29T20:12:07.081Z,99475.00
2018-06-29T20:14:36.450Z,99473.00
2018-06-29T20:17:05.861Z,99482.00
2018-06-29T20:19:35.246Z,99489.00
2018-06-29T20:22:04.598Z,99481.00
2018-06-29T20:24:33.948Z,99491.00
2018-06-29T20:27:03.398Z,99505.00
2018-06-29T20:29:32.728Z,99503.00
2018-06-29T20:32:02.114Z,99497.00
2018-06-29T20:34:31.794Z,99502.00
2018-06-29T20:37:01.218Z,99506.00
2018-06-29T20:39:30.576Z,99504.00
2018-06-29T20:41:59.992Z,99513.00
2018-06-29T20:44:29.408Z,99511.00
2018-06-29T20:46:58.775Z,99516.00
2018-06-29T20:49:28.202Z,99518.00
2018-06-29T20:51:57.561Z,99522.00
2018-06-29T20:54:26.953Z,99522.00
2018-06-29T20:56:56.388Z,99528.00
2018-06-29T20:59:25.798Z,99526.00
2018-06-29T21:01:55.225Z,99538.00
2018-06-29T21:04:24.683Z,99539.00
2018-06-29T21:06:54.126Z,99536.00
2018-06-29T21:09:23.500Z,99537.00
2018-06-29T21:11:52.898Z,99541.00
2018-06-29T21:14:22.386Z,99546.00
2018-06-29T21:16:51.820Z,99547.00
2018-06-29T21:19:21.282Z,99544.00
2018-06-29T21:21:50.723Z,99560.00
2018-06-29T21:24:20.125Z,99565.00
2018-06-29T21:26:49.516Z,99562.00
2018-06-29T21:29:18.873Z,99571.00
2018-06-29T21:31:48.253Z,99564.00
2018-06-29T21:34:17.619Z,99569.00
2018-06-29T21:36:47.009Z,99568.00
2018-06-29T21:39:16.406Z,99573.00
2018-06-29T21:41:45.789Z,99576.00
2018-06-29T21:44:15.149Z,99571.00
2018-06-29T21:46:44.487Z,99582.00
2018-06-29T21:49:13.990Z,99593.00
2018-06-29T21:51:43.387Z,99602.00
2018-06-29T21:54:12.786Z,99608.00
2018-06-29T21:56:42.161Z,99602.00
2018-06-29T21:59:11.532Z,99598.00
2018-06-29T22:01:41.124Z,99595.00
2018-06-29T22:04:10.571Z,99598.00
2018-06-29T22:06:39.993Z,99602.00
2018-06-29T22:09:10.236Z,99605.00
2018-06-29T22:11:40.022Z,99617.00
2018-06-29T22:14:09.436Z,99604.00
2018-06-29T22:16:38.868Z,99610.00
2018-06-29T22:19:08.360Z,99614.00
2018-06-29T22:21:37.767Z,99620.00
2018-06-29T22:24:07.332Z,99621.00
2018-06-29T22:26:36.741Z,99628.00
2018-06-29T22:29:06.170Z,99626.00
2018-06-29T22:31:35.193Z,99628.00
2018-06-29T22:34:04.641Z,99622.00
2018-06-29T22:36:34.059Z,99629.00
2018-06-29T22:39:03.810Z,99633.00
2018-06-29T22:41:32.871Z,99640.00
2018-06-29T22:44:02.216Z,99634.00
2018-06-29T22:46:31.691Z,99635.00
2018-06-29T22:49:01.012Z,99641.00
2018-06-29T22:51:30.408Z,99638.00
2018-06-29T22:53:59.835Z,99638.00
2018-06-29T22:56:29.274Z,99631.00
2018-06-29T22:58:58.640Z,99640.00
2018-06-29T23:01:28.038Z,99635.00
2018-06-29T23:03:57.481Z,99637.00
2018-06-29T23:06:27.007Z,99643.00
2018-06-29T23:08:56.384Z,99646.00
2018-06-29T23:11:25.778Z,99645.00
2018-06-29T23:13:55.125Z,99644.00
2018-06-29T23:16:24.631Z,99654.00
2018-06-29T23:18:54.021Z,99647.00
2018-06-29T23:21:23.386Z,99645.00
2018-06-29T23:23:52.765Z,99653.00
2018-06-29T23:26:22.093Z,99650.00
2018-06-29T23:28:51.494Z,99650.00
2018-06-29T23:31:20.923Z,99647.00
2018-06-29T23:33:50.292Z,99651.00
2018-06-29T23:36:19.671Z,99646.00
2018-06-29T23:38:48.996Z,99644.00
2018-06-29T23:41:18.356Z,99648.00
2018-06-29T23:43:47.778Z,99648.00
2018-06-29T23:46:17.168Z,99649.00
2018-06-29T23:48:46.544Z,99650.00
2018-06-29T23:51:15.935Z,99649.00
2018-06-29T23:53:45.285Z,99644.00
2018-06-29T23:56:14.646Z,99646.00
2018-06-29T23:58:44.077Z,99647.00
